Time;durP1;ratioP1;P1;durP2;ratioP2;P2;SDS_P1;SDS_P2;PMS_P1;PMS_P2;Temp;Humidity;BMP_temperature;BMP_pressure;BME280_temperature;BME280_humidity;BME280_pressure;Samples;Min_cycle;Max_cycle;Signal;HPM_P1;HPM_P2
2021/11/04 00:01:41;;;;;;;16.98;10.85;;;9.90;97.60;;;;;;5063062;28;20082;-61
2021/11/04 00:04:06;;;;;;;16.25;11.07;;;9.90;97.60;;;;;;5069501;28;20094;-61
2021/11/04 00:06:32;;;;;;;17.02;11.63;;;9.90;97.60;;;;;;5051707;28;20593;-61
2021/11/04 00:08:57;;;;;;;17.55;11.65;;;9.90;97.60;;;;;;5051313;28;20112;-61
2021/11/04 00:11:23;;;;;;;17.60;11.95;;;9.90;97.60;;;;;;5058702;28;20411;-61
2021/11/04 00:13:48;;;;;;;17.05;11.27;;;9.90;97.70;;;;;;5070129;28;20142;-61
2021/11/04 00:16:14;;;;;;;17.33;11.48;;;9.90;97.70;;;;;;5052815;28;20035;-62
2021/11/04 00:18:39;;;;;;;20.88;12.43;;;9.90;97.70;;;;;;5051063;28;20025;-61
2021/11/04 00:21:06;;;;;;;19.73;12.15;;;9.90;97.70;;;;;;5064530;28;20024;-61
2021/11/04 00:23:31;;;;;;;18.65;12.15;;;9.90;97.70;;;;;;5061090;28;20032;-62
2021/11/04 00:25:57;;;;;;;19.23;12.00;;;9.90;97.80;;;;;;5057279;28;20036;-62
2021/11/04 00:28:22;;;;;;;24.08;13.45;;;9.90;97.80;;;;;;5050999;28;20044;-62
2021/11/04 00:30:48;;;;;;;17.60;11.80;;;9.80;97.80;;;;;;5058277;28;20033;-61
2021/11/04 00:33:13;;;;;;;17.08;11.05;;;9.90;97.80;;;;;;5065103;28;20041;-62
2021/11/04 00:35:39;;;;;;;17.88;12.13;;;9.80;97.80;;;;;;5064116;28;20060;-62
2021/11/04 00:38:05;;;;;;;20.02;12.00;;;9.80;97.80;;;;;;5052287;28;20033;-62
2021/11/04 00:40:31;;;;;;;25.75;14.95;;;9.80;97.80;;;;;;5057309;28;20040;-62
2021/11/04 00:42:57;;;;;;;20.60;13.65;;;9.80;97.80;;;;;;5053435;28;20075;-61
2021/11/04 00:45:23;;;;;;;19.88;13.18;;;9.80;97.80;;;;;;5066875;28;20119;-61
2021/11/04 00:47:50;;;;;;;20.35;13.10;;;9.70;97.80;;;;;;5070201;28;20547;-61
2021/11/04 00:50:16;;;;;;;20.45;13.52;;;9.70;97.90;;;;;;5069971;28;20031;-61
2021/11/04 00:52:41;;;;;;;21.17;13.38;;;9.70;97.90;;;;;;5068245;28;20025;-61
2021/11/04 00:55:09;;;;;;;20.55;13.43;;;9.70;97.90;;;;;;5059313;28;20408;-61
2021/11/04 00:57:34;;;;;;;23.00;13.32;;;9.70;97.90;;;;;;5070065;28;20032;-61
2021/11/04 01:00:01;;;;;;;23.05;14.05;;;9.60;97.90;;;;;;5068512;28;20433;-61
2021/11/04 01:02:27;;;;;;;25.50;14.85;;;9.60;98.00;;;;;;5071175;28;20020;-61
2021/11/04 01:04:52;;;;;;;21.35;13.63;;;9.60;98.00;;;;;;5066131;28;20040;-61
2021/11/04 01:07:18;;;;;;;21.45;13.82;;;9.60;98.10;;;;;;5071123;28;20033;-61
2021/11/04 01:09:45;;;;;;;24.30;14.02;;;9.60;98.10;;;;;;5062380;28;20362;-61
2021/11/04 01:12:11;;;;;;;28.23;15.27;;;9.60;98.10;;;;;;5051203;28;20025;-61
2021/11/04 01:14:36;;;;;;;23.88;15.18;;;9.60;98.20;;;;;;5059429;28;20481;-61
2021/11/04 01:17:02;;;;;;;20.77;14.18;;;9.60;98.20;;;;;;5050961;28;20028;-61
2021/11/04 01:19:27;;;;;;;25.17;16.85;;;9.50;98.20;;;;;;5051328;28;20135;-61
2021/11/04 01:21:53;;;;;;;24.45;15.15;;;9.50;98.20;;;;;;5068327;28;20110;-61
2021/11/04 01:24:19;;;;;;;26.42;16.27;;;9.50;98.20;;;;;;5070519;28;20025;-61
2021/11/04 01:26:44;;;;;;;25.50;17.08;;;9.50;98.30;;;;;;5070735;28;20063;-61
2021/11/04 01:29:10;;;;;;;24.25;14.77;;;9.50;98.20;;;;;;5057397;28;20079;-61
2021/11/04 01:31:35;;;;;;;23.35;15.20;;;9.50;98.30;;;;;;5054342;28;20040;-62
2021/11/04 01:34:00;;;;;;;25.92;16.92;;;9.50;98.30;;;;;;5053758;28;20120;-61
2021/11/04 01:36:26;;;;;;;27.27;16.08;;;9.50;98.30;;;;;;5071464;28;20032;-61
2021/11/04 01:38:51;;;;;;;22.25;14.05;;;9.40;98.40;;;;;;5073549;28;20024;-61
2021/11/04 01:41:17;;;;;;;23.35;15.00;;;9.40;98.40;;;;;;5068522;28;20460;-61
2021/11/04 01:43:43;;;;;;;28.70;17.73;;;9.50;98.40;;;;;;5053823;28;20020;-61
2021/11/04 01:46:10;;;;;;;24.83;15.85;;;9.50;98.40;;;;;;5069144;28;20082;-62
2021/11/04 01:48:36;;;;;;;23.52;16.48;;;9.50;98.40;;;;;;5074267;28;20447;-61
2021/11/04 01:51:02;;;;;;;24.58;15.88;;;9.50;98.40;;;;;;5063256;28;20029;-61
2021/11/04 01:53:27;;;;;;;25.35;15.55;;;9.50;98.50;;;;;;5053884;28;20057;-61
2021/11/04 01:55:53;;;;;;;25.73;16.75;;;9.50;98.60;;;;;;5068265;28;20060;-61
2021/11/04 01:58:18;;;;;;;24.58;16.48;;;9.50;98.50;;;;;;5073841;28;20503;-61
2021/11/04 02:00:44;;;;;;;27.30;17.30;;;9.50;98.50;;;;;;5066615;28;20445;-61
2021/11/04 02:03:31;;;;;;;24.98;16.60;;;9.50;98.50;;;;;;5065390;28;20025;-62
2021/11/04 02:06:22;;;;;;;25.25;17.42;;;9.50;98.50;;;;;;5058718;28;20106;-62
2021/11/04 02:09:01;;;;;;;26.77;16.08;;;9.40;98.50;;;;;;5053978;28;20068;-61
2021/11/04 02:11:51;;;;;;;25.77;15.93;;;9.40;98.50;;;;;;5060349;28;20082;-61
2021/11/04 02:14:21;;;;;;;24.40;16.45;;;9.50;98.50;;;;;;5053613;28;20025;-61
2021/11/04 02:16:47;;;;;;;27.98;17.75;;;9.40;98.50;;;;;;5063610;28;20032;-61
2021/11/04 02:19:36;;;;;;;27.98;17.65;;;9.40;98.50;;;;;;5055874;28;20110;-61
2021/11/04 02:22:03;;;;;;;27.83;16.98;;;9.40;98.50;;;;;;5078991;28;20144;-61
2021/11/04 02:24:40;;;;;;;25.75;18.13;;;9.30;98.50;;;;;;5072350;28;20040;-61
2021/11/04 02:27:09;;;;;;;28.73;18.52;;;9.30;98.60;;;;;;5066260;28;20044;-61
2021/11/04 02:29:38;;;;;;;26.88;17.70;;;9.20;98.60;;;;;;5073608;28;20055;-61
2021/11/04 02:32:05;;;;;;;26.98;17.92;;;9.20;98.60;;;;;;5056129;28;20025;-61
2021/11/04 02:34:31;;;;;;;27.67;18.15;;;9.20;98.70;;;;;;5055607;28;20481;-61
2021/11/04 02:36:58;;;;;;;31.73;18.27;;;9.20;98.70;;;;;;5057637;28;20048;-61
2021/11/04 02:39:27;;;;;;;29.17;17.48;;;9.10;98.70;;;;;;5066160;28;20025;-61
2021/11/04 02:41:53;;;;;;;28.13;17.88;;;9.20;98.80;;;;;;5072135;28;20496;-61
2021/11/04 02:44:19;;;;;;;27.58;17.75;;;9.10;98.70;;;;;;5069290;28;20056;-61
2021/11/04 02:46:45;;;;;;;29.88;19.10;;;9.10;98.70;;;;;;5073010;28;20060;-61
2021/11/04 02:49:11;;;;;;;29.10;18.90;;;9.20;98.80;;;;;;5055439;28;20040;-61
2021/11/04 02:51:37;;;;;;;29.40;19.02;;;9.10;98.80;;;;;;5067136;28;20029;-61
2021/11/04 02:54:05;;;;;;;28.50;18.67;;;9.10;98.80;;;;;;5064042;28;20131;-61
2021/11/04 02:56:49;;;;;;;28.00;18.40;;;9.10;98.90;;;;;;5056815;28;20033;-61
2021/11/04 02:59:18;;;;;;;28.88;19.25;;;9.10;98.90;;;;;;5052962;28;20448;-61
2021/11/04 03:01:45;;;;;;;30.25;19.67;;;9.10;98.90;;;;;;5067568;28;20484;-61
2021/11/04 03:04:13;;;;;;;31.88;19.63;;;9.00;99.10;;;;;;5072373;28;20024;-61
2021/11/04 03:06:39;;;;;;;28.67;18.67;;;9.10;98.90;;;;;;5057598;28;20044;-61
2021/11/04 03:09:04;;;;;;;29.05;18.38;;;9.10;98.80;;;;;;5052056;28;20028;-61
2021/11/04 03:11:30;;;;;;;30.73;20.25;;;9.00;98.80;;;;;;5065110;28;20040;-61
2021/11/04 03:13:56;;;;;;;30.52;18.38;;;9.00;98.90;;;;;;5072320;28;20032;-61
2021/11/04 03:16:23;;;;;;;30.75;19.30;;;9.00;98.90;;;;;;5071435;28;20029;-61
2021/11/04 03:18:50;;;;;;;29.33;18.40;;;9.00;98.90;;;;;;5069149;28;20016;-61
2021/11/04 03:21:15;;;;;;;29.00;17.38;;;9.10;98.90;;;;;;5072267;28;20488;-61
2021/11/04 03:23:41;;;;;;;29.35;18.88;;;9.10;98.90;;;;;;5070665;28;20025;-61
2021/11/04 03:26:07;;;;;;;31.70;20.77;;;9.10;98.90;;;;;;5070849;28;20024;-61
2021/11/04 03:28:33;;;;;;;31.98;20.35;;;9.10;98.90;;;;;;5053089;28;20101;-61
2021/11/04 03:31:00;;;;;;;33.80;20.65;;;9.20;98.90;;;;;;5061142;28;20028;-61
2021/11/04 03:33:27;;;;;;;34.90;21.73;;;9.10;98.90;;;;;;5069399;28;20025;-61
2021/11/04 03:35:55;;;;;;;31.35;20.58;;;9.20;98.90;;;;;;5072066;28;20166;-61
2021/11/04 03:38:22;;;;;;;37.38;22.73;;;9.10;98.90;;;;;;5070547;28;20039;-61
2021/11/04 03:40:48;;;;;;;34.90;22.73;;;9.10;98.90;;;;;;5051963;28;20025;-61
2021/11/04 03:43:14;;;;;;;34.60;21.90;;;9.20;98.90;;;;;;5051850;28;20028;-61
2021/11/04 03:45:39;;;;;;;36.17;23.17;;;9.10;98.90;;;;;;5052176;28;20094;-61
2021/11/04 03:48:07;;;;;;;39.45;24.08;;;9.10;99.00;;;;;;5051970;28;20028;-61
2021/11/04 03:50:36;;;;;;;36.45;23.27;;;9.10;99.00;;;;;;5054200;28;20044;-61
2021/11/04 03:53:02;;;;;;;36.55;23.98;;;9.10;99.00;;;;;;5050697;28;20028;-61
2021/11/04 03:55:31;;;;;;;39.08;24.23;;;9.10;99.00;;;;;;5068708;28;20419;-61
2021/11/04 03:57:58;;;;;;;39.78;25.38;;;9.10;99.00;;;;;;5072218;28;20058;-61
2021/11/04 04:00:24;;;;;;;41.35;24.30;;;9.10;99.00;;;;;;5070003;28;20082;-61
2021/11/04 04:02:50;;;;;;;36.10;23.48;;;9.10;99.00;;;;;;5071693;28;20385;-61
2021/11/04 04:05:16;;;;;;;38.80;24.67;;;9.10;99.10;;;;;;5070218;28;20103;-61
2021/11/04 04:07:43;;;;;;;36.40;25.02;;;9.10;99.00;;;;;;5070911;28;20115;-61
2021/11/04 04:10:09;;;;;;;39.45;24.52;;;9.10;99.00;;;;;;5071555;28;20028;-61
2021/11/04 04:12:34;;;;;;;39.72;24.23;;;9.00;99.00;;;;;;5068869;28;20151;-61
2021/11/04 04:15:00;;;;;;;40.50;25.92;;;9.00;99.10;;;;;;5051531;28;20473;-61
2021/11/04 04:17:25;;;;;;;44.22;26.92;;;9.00;99.20;;;;;;5052639;28;20067;-61
2021/11/04 04:19:51;;;;;;;42.63;25.63;;;9.00;99.10;;;;;;5071191;28;20043;-61
2021/11/04 04:22:18;;;;;;;44.97;27.52;;;9.00;99.20;;;;;;5069852;28;20032;-61
2021/11/04 04:24:44;;;;;;;40.42;26.73;;;9.00;99.20;;;;;;5057495;28;20025;-61
2021/11/04 04:27:10;;;;;;;45.22;27.92;;;9.00;99.20;;;;;;5051645;28;20033;-61
2021/11/04 04:29:36;;;;;;;48.95;28.55;;;9.00;99.30;;;;;;5051562;28;20109;-61
2021/11/04 04:32:02;;;;;;;49.67;29.00;;;9.00;99.30;;;;;;5049895;28;20115;-61
2021/11/04 04:34:27;;;;;;;45.58;28.08;;;9.00;99.30;;;;;;5051971;28;20384;-61
2021/11/04 04:36:53;;;;;;;50.42;29.85;;;8.90;99.30;;;;;;5051231;28;20028;-61
2021/11/04 04:39:19;;;;;;;48.85;29.42;;;8.90;99.30;;;;;;5059489;28;20020;-61
2021/11/04 04:41:44;;;;;;;45.75;28.90;;;8.90;99.40;;;;;;5071314;28;20031;-61
2021/11/04 04:44:10;;;;;;;47.25;27.67;;;9.00;99.40;;;;;;5059300;28;20473;-61
2021/11/04 04:46:35;;;;;;;51.22;30.23;;;8.90;99.30;;;;;;5059716;28;20025;-61
2021/11/04 04:49:01;;;;;;;49.55;29.25;;;9.00;99.40;;;;;;5070236;28;20032;-61
2021/11/04 04:51:26;;;;;;;49.28;29.15;;;9.00;99.40;;;;;;5059595;28;20558;-61
2021/11/04 04:53:52;;;;;;;49.55;29.00;;;9.00;99.40;;;;;;5051218;28;20063;-61
2021/11/04 04:56:17;;;;;;;48.47;28.77;;;9.00;99.40;;;;;;5051193;28;20025;-62
2021/11/04 04:58:43;;;;;;;50.88;30.13;;;9.00;99.40;;;;;;5066655;28;20029;-61
2021/11/04 05:01:08;;;;;;;47.30;28.58;;;9.00;99.50;;;;;;5070900;28;20021;-61
2021/11/04 05:03:34;;;;;;;49.38;30.02;;;9.00;99.40;;;;;;5056564;28;20476;-61
2021/11/04 05:06:00;;;;;;;54.88;30.20;;;9.00;99.50;;;;;;5055072;28;20504;-61
2021/11/04 05:08:25;;;;;;;45.47;28.45;;;9.00;99.50;;;;;;5055134;28;20044;-61
2021/11/04 05:10:51;;;;;;;52.45;30.42;;;9.00;99.50;;;;;;5072137;28;20025;-61
2021/11/04 05:13:16;;;;;;;51.90;31.45;;;8.90;99.50;;;;;;5074847;28;20032;-61
2021/11/04 05:15:42;;;;;;;49.88;30.35;;;8.90;99.60;;;;;;5068817;28;20112;-61
2021/11/04 05:18:08;;;;;;;50.53;29.77;;;8.90;99.60;;;;;;5054226;28;20040;-62
2021/11/04 05:20:38;;;;;;;53.75;31.30;;;8.90;99.60;;;;;;5054787;28;20076;-61
2021/11/04 05:23:04;;;;;;;52.05;30.63;;;8.90;99.70;;;;;;5055486;28;20112;-61
2021/11/04 05:25:30;;;;;;;47.00;27.95;;;8.90;99.70;;;;;;5057906;28;20033;-61
2021/11/04 05:27:56;;;;;;;50.65;30.73;;;8.90;99.60;;;;;;5073747;28;20048;-61
2021/11/04 05:30:21;;;;;;;54.75;32.90;;;8.90;99.60;;;;;;5074673;28;20346;-63
2021/11/04 05:32:48;;;;;;;52.42;30.77;;;8.80;99.70;;;;;;5064426;28;20033;-62
2021/11/04 05:35:15;;;;;;;49.13;27.73;;;8.80;99.80;;;;;;5054328;28;20021;-61
2021/11/04 05:37:40;;;;;;;54.17;31.17;;;8.80;99.80;;;;;;5054751;28;20041;-61
2021/11/04 05:40:07;;;;;;;52.08;30.30;;;8.80;99.90;;;;;;5064865;28;20028;-61
2021/11/04 05:42:32;;;;;;;49.95;28.88;;;8.80;99.90;;;;;;5073461;28;20029;-62
2021/11/04 05:44:59;;;;;;;52.65;30.50;;;8.80;99.80;;;;;;5059313;28;20028;-62
2021/11/04 05:47:25;;;;;;;53.25;30.15;;;8.80;99.80;;;;;;5054410;28;20045;-62
2021/11/04 05:49:50;;;;;;;54.03;31.13;;;8.80;99.80;;;;;;5053932;28;20152;-61
2021/11/04 05:52:16;;;;;;;55.70;29.40;;;8.80;99.80;;;;;;5073732;28;20021;-61
2021/11/04 05:54:41;;;;;;;51.42;29.05;;;8.80;99.80;;;;;;5071378;28;20521;-61
2021/11/04 05:57:07;;;;;;;50.85;30.83;;;8.90;99.80;;;;;;5073863;28;20476;-61
2021/11/04 05:59:32;;;;;;;58.17;32.42;;;8.90;99.80;;;;;;5069793;28;20420;-61
2021/11/04 06:01:58;;;;;;;56.13;33.72;;;8.90;99.80;;;;;;5053545;28;20029;-61
2021/11/04 06:04:23;;;;;;;55.67;33.03;;;8.80;99.90;;;;;;5059894;28;20025;-60
2021/11/04 06:06:49;;;;;;;57.13;33.55;;;8.80;99.90;;;;;;5072470;28;20459;-61
2021/11/04 06:09:15;;;;;;;57.00;32.28;;;8.70;99.90;;;;;;5063692;28;20033;-61
2021/11/04 06:11:40;;;;;;;52.90;31.42;;;8.80;99.90;;;;;;5053719;28;20052;-61
2021/11/04 06:14:07;;;;;;;55.15;32.70;;;8.70;99.90;;;;;;5061040;28;20035;-61
2021/11/04 06:16:32;;;;;;;52.83;30.95;;;8.70;99.90;;;;;;5069007;28;20033;-61
2021/11/04 06:18:58;;;;;;;54.20;31.92;;;8.80;99.90;;;;;;5059680;28;20028;-61
2021/11/04 06:21:24;;;;;;;54.47;31.83;;;8.80;99.90;;;;;;5073393;28;20021;-61
2021/11/04 06:23:50;;;;;;;59.20;32.45;;;8.70;99.90;;;;;;5068609;28;20032;-60
2021/11/04 06:26:16;;;;;;;50.25;30.25;;;8.70;99.90;;;;;;5061200;28;20035;-61
2021/11/04 06:28:42;;;;;;;56.45;32.55;;;8.70;99.90;;;;;;5069950;28;20438;-60
2021/11/04 06:31:07;;;;;;;54.15;31.05;;;8.60;99.90;;;;;;5061509;28;20016;-61
2021/11/04 06:33:33;;;;;;;57.78;32.30;;;8.70;99.90;;;;;;5055661;28;20499;-60
2021/11/04 06:35:59;;;;;;;58.50;32.58;;;8.60;99.90;;;;;;5072606;28;20013;-60
2021/11/04 06:38:24;;;;;;;54.45;30.63;;;8.60;99.90;;;;;;5065564;28;20042;-61
2021/11/04 06:40:50;;;;;;;55.60;31.20;;;8.60;99.90;;;;;;5051758;28;20032;-62
2021/11/04 06:43:16;;;;;;;54.42;30.27;;;8.60;99.90;;;;;;5072203;28;20054;-61
2021/11/04 06:45:51;;;;;;;57.97;33.75;;;8.60;99.90;;;;;;5052871;28;20500;-61
2021/11/04 06:48:21;;;;;;;;;;;8.60;99.90;;;;;;5054768;28;20037;-61
2021/11/04 06:50:48;;;;;;;57.40;34.45;;;8.60;99.90;;;;;;5060568;28;19924;-61
2021/11/04 06:53:15;;;;;;;56.10;31.35;;;8.50;99.90;;;;;;5072182;28;20048;-62
2021/11/04 06:55:44;;;;;;;55.15;31.50;;;8.60;99.90;;;;;;5071282;28;20119;-62
2021/11/04 06:58:15;;;;;;;58.22;32.20;;;8.50;99.90;;;;;;5064080;28;20496;-62
2021/11/04 07:00:48;;;;;;;55.80;31.08;;;8.60;99.90;;;;;;5054052;28;20124;-62
2021/11/04 07:03:16;;;;;;;60.88;33.55;;;8.60;99.90;;;;;;5052620;28;20541;-62
2021/11/04 07:05:45;;;;;;;52.55;30.00;;;8.60;99.90;;;;;;5053048;28;20033;-61
2021/11/04 07:08:22;;;;;;;53.08;31.60;;;8.70;99.90;;;;;;5084240;28;20037;-61
2021/11/04 07:10:48;;;;;;;58.63;33.78;;;8.70;99.90;;;;;;5071654;28;20082;-62
2021/11/04 07:13:14;;;;;;;51.72;29.17;;;8.80;99.90;;;;;;5072602;28;20553;-62
2021/11/04 07:15:42;;;;;;;57.28;30.45;;;8.80;99.90;;;;;;5054467;28;20083;-62
2021/11/04 07:18:12;;;;;;;59.00;33.55;;;8.80;99.90;;;;;;5083833;28;20027;-62
2021/11/04 07:20:42;;;;;;;54.08;31.10;;;8.90;99.90;;;;;;5072773;28;20060;-62
2021/11/04 07:23:12;;;;;;;57.25;31.88;;;8.90;99.90;;;;;;5064465;28;20079;-62
2021/11/04 07:25:43;;;;;;;59.88;32.00;;;8.80;99.90;;;;;;5053100;28;20037;-61
2021/11/04 07:28:15;;;;;;;57.00;33.33;;;8.90;99.90;;;;;;5056656;28;20032;-62
2021/11/04 07:30:41;;;;;;;56.28;30.95;;;8.80;99.90;;;;;;5060079;28;20094;-62
2021/11/04 07:33:09;;;;;;;58.55;32.33;;;8.90;99.90;;;;;;5070120;28;20040;-62
2021/11/04 07:35:39;;;;;;;61.40;34.67;;;8.90;99.90;;;;;;5072231;28;20036;-61
2021/11/04 07:38:07;;;;;;;52.15;30.80;;;8.80;99.90;;;;;;5067071;28;20060;-62
2021/11/04 07:40:33;;;;;;;59.97;32.50;;;8.80;99.90;;;;;;5052271;28;20505;-61
2021/11/04 07:42:59;;;;;;;55.28;30.20;;;8.80;99.90;;;;;;5052944;28;20048;-61
2021/11/04 07:45:26;;;;;;;53.58;30.70;;;8.80;99.90;;;;;;5052101;28;20048;-61
2021/11/04 07:47:52;;;;;;;51.67;30.17;;;8.80;99.90;;;;;;5050557;28;20047;-61
2021/11/04 07:50:20;;;;;;;55.03;32.35;;;8.80;99.90;;;;;;5056142;28;20112;-61
2021/11/04 07:52:47;;;;;;;53.90;29.23;;;8.80;99.90;;;;;;5060895;28;20041;-62
2021/11/04 07:55:13;;;;;;;53.58;32.78;;;8.80;99.90;;;;;;5057388;28;20536;-62
2021/11/04 07:57:40;;;;;;;53.97;30.63;;;8.80;99.90;;;;;;5057503;28;20044;-63
2021/11/04 08:00:12;;;;;;;56.40;31.48;;;8.80;99.90;;;;;;5053759;28;20032;-61
2021/11/04 08:02:41;;;;;;;59.72;32.30;;;8.80;99.90;;;;;;5051143;28;20045;-61
2021/11/04 08:05:08;;;;;;;53.97;30.77;;;8.80;99.90;;;;;;5059054;28;20131;-61
2021/11/04 08:07:35;;;;;;;56.83;31.40;;;8.80;99.90;;;;;;5071353;28;20404;-62
2021/11/04 08:10:05;;;;;;;56.05;31.27;;;8.80;99.90;;;;;;5063013;28;20025;-61
2021/11/04 08:12:32;;;;;;;57.92;31.30;;;8.70;99.90;;;;;;5051131;28;20473;-61
2021/11/04 08:14:59;;;;;;;56.72;31.67;;;8.70;99.90;;;;;;5057125;28;20074;-62
2021/11/04 08:17:24;;;;;;;59.58;31.05;;;8.70;99.90;;;;;;5072660;28;20114;-61
2021/11/04 08:19:50;;;;;;;58.95;31.90;;;8.70;99.90;;;;;;5060464;28;20485;-61
2021/11/04 08:22:16;;;;;;;50.70;28.15;;;8.70;99.90;;;;;;5051052;28;20018;-61
2021/11/04 08:24:42;;;;;;;62.90;31.88;;;8.60;99.90;;;;;;5060476;28;20025;-61
2021/11/04 08:27:07;;;;;;;56.95;31.20;;;8.60;99.90;;;;;;5051259;28;20044;-61
2021/11/04 08:29:33;;;;;;;55.40;32.28;;;8.60;99.90;;;;;;5050862;28;20033;-61
2021/11/04 08:31:58;;;;;;;52.38;29.60;;;8.70;99.90;;;;;;5061533;28;20017;-61
2021/11/04 08:34:24;;;;;;;56.63;31.38;;;8.60;99.90;;;;;;5051742;28;20132;-61
2021/11/04 08:36:49;;;;;;;54.70;29.83;;;8.60;99.90;;;;;;5051439;28;20021;-61
2021/11/04 08:39:15;;;;;;;54.42;30.77;;;8.60;99.90;;;;;;5052920;28;20024;-61
2021/11/04 08:41:43;;;;;;;51.35;28.42;;;8.60;99.90;;;;;;5055106;28;20162;-61
2021/11/04 08:44:08;;;;;;;55.45;29.88;;;8.70;99.90;;;;;;5055141;28;20373;-61
2021/11/04 08:46:34;;;;;;;54.20;28.33;;;8.60;99.90;;;;;;5056874;28;20025;-61
2021/11/04 08:49:02;;;;;;;52.45;28.77;;;8.70;99.90;;;;;;5054966;28;20059;-61
2021/11/04 08:51:28;;;;;;;58.90;29.63;;;8.70;99.90;;;;;;5056022;28;20031;-62
2021/11/04 08:53:53;;;;;;;50.13;28.23;;;8.60;99.90;;;;;;5054460;28;20205;-62
2021/11/04 08:56:18;;;;;;;64.35;31.77;;;8.60;99.90;;;;;;5056570;28;20074;-62
2021/11/04 08:58:44;;;;;;;51.58;26.92;;;8.60;99.90;;;;;;5054887;28;20017;-62
2021/11/04 09:01:10;;;;;;;47.50;26.83;;;8.60;99.90;;;;;;5055707;28;20096;-62
2021/11/04 09:03:35;;;;;;;44.47;24.50;;;8.60;99.90;;;;;;5064962;28;20028;-62
2021/11/04 09:06:02;;;;;;;46.25;27.67;;;8.60;99.90;;;;;;5068462;28;20489;-63
2021/11/04 09:08:28;;;;;;;52.70;27.38;;;8.60;99.90;;;;;;5055624;28;20044;-61
2021/11/04 09:10:53;;;;;;;46.72;25.42;;;8.60;99.90;;;;;;5055165;28;20082;-62
2021/11/04 09:13:20;;;;;;;50.40;26.05;;;8.60;99.90;;;;;;5057700;28;20427;-62
2021/11/04 09:15:46;;;;;;;46.72;25.92;;;8.60;99.90;;;;;;5062808;28;20033;-62
2021/11/04 09:18:12;;;;;;;45.25;24.20;;;8.60;99.90;;;;;;5069464;28;20376;-62
2021/11/04 09:20:37;;;;;;;42.97;24.65;;;8.60;99.90;;;;;;5054159;28;20029;-63
2021/11/04 09:23:03;;;;;;;42.20;25.05;;;8.60;99.90;;;;;;5054634;28;20110;-63
2021/11/04 09:25:29;;;;;;;40.13;23.67;;;8.60;99.90;;;;;;5055266;28;20474;-62
2021/11/04 09:27:56;;;;;;;43.13;24.65;;;8.50;99.90;;;;;;5063171;28;20032;-62
2021/11/04 09:30:22;;;;;;;43.10;24.83;;;8.50;99.90;;;;;;5071136;28;20017;-62
2021/11/04 09:32:48;;;;;;;45.20;24.70;;;8.40;99.90;;;;;;5058399;28;20099;-62
2021/11/04 09:35:14;;;;;;;43.90;23.75;;;8.40;99.90;;;;;;5072962;28;20099;-62
2021/11/04 09:37:40;;;;;;;44.80;23.92;;;8.40;99.90;;;;;;5074748;28;20103;-62
2021/11/04 09:40:07;;;;;;;48.80;24.38;;;8.40;99.90;;;;;;5071569;28;20024;-62
2021/11/04 09:42:33;;;;;;;45.60;25.27;;;8.40;99.90;;;;;;5054961;28;20028;-62
2021/11/04 09:44:59;;;;;;;52.90;25.83;;;8.40;99.90;;;;;;5053902;28;20025;-62
2021/11/04 09:47:27;;;;;;;51.20;25.63;;;8.30;99.90;;;;;;5073897;28;20461;-61
2021/11/04 09:49:53;;;;;;;51.78;24.67;;;8.30;99.90;;;;;;5079164;28;20224;-61
2021/11/04 09:52:24;;;;;;;54.85;27.38;;;8.30;99.90;;;;;;5054230;28;20041;-61
2021/11/04 09:54:51;;;;;;;48.97;25.45;;;8.20;99.90;;;;;;5052827;28;20045;-61
2021/11/04 09:57:16;;;;;;;46.88;25.83;;;8.20;99.90;;;;;;5065985;28;20032;-62
2021/11/04 09:59:43;;;;;;;46.13;22.92;;;8.30;99.90;;;;;;5058730;28;20468;-64
2021/11/04 10:02:20;;;;;;;48.17;24.25;;;8.20;99.90;;;;;;5052452;28;20428;-63
2021/11/04 10:04:46;;;;;;;47.58;23.80;;;8.20;99.90;;;;;;5072564;28;20032;-64
2021/11/04 10:07:13;;;;;;;53.38;26.92;;;8.20;99.90;;;;;;5073421;28;20024;-63
2021/11/04 10:09:39;;;;;;;39.17;20.25;;;8.20;99.90;;;;;;5065111;28;20036;-62
2021/11/04 10:12:12;;;;;;;37.83;19.98;;;8.20;99.90;;;;;;5054283;28;20021;-63
2021/11/04 10:14:39;;;;;;;34.30;19.30;;;8.10;99.90;;;;;;5057087;28;20029;-63
2021/11/04 10:17:22;;;;;;;29.83;16.45;;;8.10;99.90;;;;;;5070466;28;20037;-63
2021/11/04 10:19:48;;;;;;;34.83;18.48;;;8.10;99.90;;;;;;5064863;28;20028;-63
2021/11/04 10:22:23;;;;;;;36.92;17.85;;;8.10;99.90;;;;;;5067505;28;20060;-63
2021/11/04 10:24:49;;;;;;;;;;;8.10;99.90;;;;;;5052048;28;20033;-62
2021/11/04 10:27:32;;;;;;;39.03;19.05;;;8.10;99.90;;;;;;5053281;28;19924;-62
2021/11/04 10:29:59;;;;;;;45.40;22.45;;;8.00;99.90;;;;;;5069418;28;20024;-62
2021/11/04 10:32:33;;;;;;;33.17;17.67;;;8.00;99.90;;;;;;5060894;28;20029;-64
2021/11/04 10:35:08;;;;;;;32.13;16.65;;;8.10;99.90;;;;;;5070078;28;20585;-62
2021/11/04 10:37:50;;;;;;;38.58;17.17;;;8.10;99.90;;;;;;5055978;28;20033;-63
2021/11/04 10:40:19;;;;;;;30.13;16.98;;;8.00;99.90;;;;;;5053292;28;20063;-62
2021/11/04 10:42:53;;;;;;;30.38;15.68;;;8.10;99.90;;;;;;5052888;28;20025;-63
2021/11/04 10:45:24;;;;;;;24.27;13.50;;;8.10;99.90;;;;;;5052911;28;20025;-63
2021/11/04 10:48:20;;;;;;;28.10;14.63;;;8.00;99.90;;;;;;5052825;28;20075;-63
2021/11/04 10:50:47;;;;;;;29.20;15.75;;;8.00;99.90;;;;;;5078131;28;20024;-62
2021/11/04 10:53:20;;;;;;;25.90;13.90;;;8.00;99.90;;;;;;5073459;28;20048;-63
2021/11/04 10:55:50;;;;;;;29.02;14.65;;;8.10;99.90;;;;;;5078584;28;20032;-63
2021/11/04 10:58:31;;;;;;;25.85;14.82;;;8.10;99.90;;;;;;5080708;28;20029;-63
2021/11/04 11:00:56;;;;;;;28.35;14.55;;;8.10;99.90;;;;;;5084164;28;20073;-64
2021/11/04 11:03:22;;;;;;;24.42;12.75;;;8.10;99.90;;;;;;5058013;28;20028;-63
2021/11/04 11:05:48;;;;;;;24.58;14.05;;;8.10;99.90;;;;;;5059659;28;20071;-63
2021/11/04 11:08:15;;;;;;;24.33;13.10;;;8.10;99.90;;;;;;5063625;28;20032;-63
2021/11/04 11:10:44;;;;;;;23.55;12.88;;;8.10;99.90;;;;;;5067543;28;20499;-63
2021/11/04 11:13:10;;;;;;;28.23;15.32;;;8.20;99.90;;;;;;5052430;28;20025;-63
2021/11/04 11:15:42;;;;;;;22.17;12.15;;;8.20;99.90;;;;;;5070732;28;20040;-63
2021/11/04 11:18:09;;;;;;;29.60;15.45;;;8.20;99.90;;;;;;5052524;28;20056;-63
2021/11/04 11:20:43;;;;;;;24.67;13.23;;;8.20;99.90;;;;;;5054039;28;20025;-63
2021/11/04 11:23:11;;;;;;;27.35;15.43;;;8.20;99.90;;;;;;5056265;28;20024;-63
2021/11/04 11:25:41;;;;;;;24.50;13.13;;;8.20;99.90;;;;;;5059200;28;20048;-63
2021/11/04 11:28:07;;;;;;;21.92;12.27;;;8.20;99.90;;;;;;5062443;28;20037;-63
2021/11/04 11:30:33;;;;;;;24.88;12.45;;;8.20;99.90;;;;;;5052059;28;20104;-63
2021/11/04 11:33:24;;;;;;;19.77;11.00;;;8.20;99.90;;;;;;5064141;28;20473;-63
2021/11/04 11:36:26;;;;;;;23.92;11.63;;;8.30;99.90;;;;;;5071837;28;20036;-63
2021/11/04 11:38:54;;;;;;;22.45;12.10;;;8.30;99.90;;;;;;5071965;28;20035;-63
2021/11/04 11:41:21;;;;;;;19.48;11.27;;;8.30;99.90;;;;;;5053616;28;20021;-62
2021/11/04 11:43:53;;;;;;;19.13;11.57;;;8.40;99.90;;;;;;5051200;28;20021;-62
2021/11/04 11:46:19;;;;;;;23.30;12.88;;;8.40;99.90;;;;;;5069501;28;20119;-63
2021/11/04 11:49:10;;;;;;;18.58;11.10;;;8.40;99.90;;;;;;5062705;28;20156;-63
2021/11/04 11:51:39;;;;;;;17.75;10.55;;;8.50;99.90;;;;;;5065260;28;20034;-62
2021/11/04 11:54:05;;;;;;;17.80;10.15;;;8.50;99.90;;;;;;5058477;28;20127;-62
2021/11/04 11:56:30;;;;;;;21.40;11.27;;;8.50;99.90;;;;;;5063833;28;20107;-62
2021/11/04 11:59:21;;;;;;;15.98;9.25;;;8.50;99.90;;;;;;5061070;28;20055;-63
2021/11/04 12:01:47;;;;;;;16.17;9.57;;;8.50;99.90;;;;;;5051784;28;20013;-63
2021/11/04 12:04:26;;;;;;;15.45;9.57;;;8.50;99.90;;;;;;5060279;28;20040;-63
2021/11/04 12:06:54;;;;;;;13.35;8.13;;;8.50;99.90;;;;;;5053674;28;20029;-63
2021/11/04 12:09:38;;;;;;;21.30;10.80;;;8.50;99.90;;;;;;5071843;28;20381;-63
2021/11/04 12:12:06;;;;;;;15.75;8.45;;;8.50;99.90;;;;;;5057711;28;20029;-62
2021/11/04 12:14:34;;;;;;;16.83;10.10;;;8.60;99.90;;;;;;5055249;28;20466;-62
2021/11/04 12:16:59;;;;;;;17.20;9.52;;;8.60;99.90;;;;;;5061438;28;20040;-63
2021/11/04 12:19:47;;;;;;;18.23;9.80;;;8.60;99.90;;;;;;5052242;28;20087;-62
2021/11/04 12:22:24;;;;;;;19.02;10.30;;;8.70;99.90;;;;;;5066446;28;20033;-63
2021/11/04 12:24:52;;;;;;;18.65;10.40;;;8.70;99.90;;;;;;5069935;28;20074;-61
2021/11/04 12:27:18;;;;;;;15.68;8.98;;;8.70;99.90;;;;;;5068186;28;20043;-60
2021/11/04 12:29:45;;;;;;;16.48;9.35;;;8.70;99.90;;;;;;5069687;28;20490;-60
2021/11/04 12:32:12;;;;;;;17.20;9.73;;;8.80;99.90;;;;;;5057175;28;20037;-60
2021/11/04 12:34:38;;;;;;;13.18;8.23;;;8.80;99.90;;;;;;5062367;28;20102;-60
2021/11/04 12:37:09;;;;;;;16.20;9.63;;;8.90;99.90;;;;;;5051170;28;20091;-61
2021/11/04 12:39:35;;;;;;;14.23;8.98;;;8.90;99.90;;;;;;5063184;28;20119;-61
2021/11/04 12:42:01;;;;;;;15.13;8.88;;;8.80;99.90;;;;;;5067785;28;20132;-60